sensor_id;sensor_type;location;lat;lon;timestamp;P1;durP1;ratioP1;P2;durP2;ratioP2
61644;SDS011;47553;52.428;13.382;2022-11-15T00:03:15;30.65;;;13.27;;
61644;SDS011;47553;52.428;13.382;2022-11-15T00:05:17;33.20;;;14.57;;
61644;SDS011;47553;52.428;13.382;2022-11-15T00:07:19;36.70;;;15.45;;
61644;SDS011;47553;52.428;13.382;2022-11-15T00:09:40;37.28;;;16.45;;
61644;SDS011;47553;52.428;13.382;2022-11-15T00:11:46;34.72;;;14.88;;
61644;SDS011;47553;52.428;13.382;2022-11-15T00:13:47;32.83;;;14.98;;
61644;SDS011;47553;52.428;13.382;2022-11-15T00:17:52;33.55;;;14.13;;
61644;SDS011;47553;52.428;13.382;2022-11-15T00:19:53;33.08;;;14.27;;
61644;SDS011;47553;52.428;13.382;2022-11-15T00:23:56;31.88;;;13.30;;
61644;SDS011;47553;52.428;13.382;2022-11-15T00:25:59;31.55;;;13.82;;
61644;SDS011;47553;52.428;13.382;2022-11-15T00:28:01;34.08;;;14.40;;
61644;SDS011;47553;52.428;13.382;2022-11-15T00:30:03;31.00;;;14.73;;
61644;SDS011;47553;52.428;13.382;2022-11-15T00:32:06;31.20;;;14.27;;
61644;SDS011;47553;52.428;13.382;2022-11-15T00:36:11;29.40;;;13.20;;
61644;SDS011;47553;52.428;13.382;2022-11-15T00:38:16;34.20;;;15.13;;
61644;SDS011;47553;52.428;13.382;2022-11-15T00:40:18;32.67;;;14.75;;
61644;SDS011;47553;52.428;13.382;2022-11-15T00:44:21;32.08;;;14.27;;
61644;SDS011;47553;52.428;13.382;2022-11-15T00:48:24;39.58;;;15.25;;
61644;SDS011;47553;52.428;13.382;2022-11-15T00:50:27;38.90;;;16.10;;
61644;SDS011;47553;52.428;13.382;2022-11-15T00:52:28;33.53;;;14.82;;
61644;SDS011;47553;52.428;13.382;2022-11-15T00:56:31;34.67;;;14.57;;
61644;SDS011;47553;52.428;13.382;2022-11-15T01:00:34;35.53;;;14.93;;
61644;SDS011;47553;52.428;13.382;2022-11-15T01:02:36;41.13;;;16.00;;
61644;SDS011;47553;52.428;13.382;2022-11-15T01:04:38;38.35;;;16.33;;
61644;SDS011;47553;52.428;13.382;2022-11-15T01:08:42;38.75;;;16.25;;
61644;SDS011;47553;52.428;13.382;2022-11-15T01:12:45;38.30;;;14.88;;
61644;SDS011;47553;52.428;13.382;2022-11-15T01:14:49;36.17;;;15.63;;
61644;SDS011;47553;52.428;13.382;2022-11-15T01:18:52;38.88;;;16.45;;
61644;SDS011;47553;52.428;13.382;2022-11-15T01:20:54;40.25;;;16.90;;
61644;SDS011;47553;52.428;13.382;2022-11-15T01:24:58;34.60;;;14.88;;
61644;SDS011;47553;52.428;13.382;2022-11-15T01:27:00;33.95;;;15.25;;
61644;SDS011;47553;52.428;13.382;2022-11-15T01:31:04;38.70;;;16.02;;
61644;SDS011;47553;52.428;13.382;2022-11-15T01:33:07;40.47;;;17.02;;
61644;SDS011;47553;52.428;13.382;2022-11-15T01:37:10;36.38;;;14.90;;
61644;SDS011;47553;52.428;13.382;2022-11-15T01:39:13;35.58;;;14.27;;
61644;SDS011;47553;52.428;13.382;2022-11-15T01:41:15;36.83;;;15.50;;
61644;SDS011;47553;52.428;13.382;2022-11-15T01:43:19;36.47;;;15.23;;
61644;SDS011;47553;52.428;13.382;2022-11-15T01:45:22;36.67;;;15.98;;
61644;SDS011;47553;52.428;13.382;2022-11-15T01:47:25;38.90;;;16.13;;
61644;SDS011;47553;52.428;13.382;2022-11-15T01:49:29;36.08;;;14.23;;
61644;SDS011;47553;52.428;13.382;2022-11-15T01:51:33;32.20;;;14.02;;
61644;SDS011;47553;52.428;13.382;2022-11-15T01:53:35;34.92;;;15.65;;
61644;SDS011;47553;52.428;13.382;2022-11-15T01:55:41;36.15;;;15.68;;
61644;SDS011;47553;52.428;13.382;2022-11-15T01:57:42;39.40;;;16.02;;
61644;SDS011;47553;52.428;13.382;2022-11-15T01:59:47;37.42;;;15.27;;
61644;SDS011;47553;52.428;13.382;2022-11-15T02:01:49;37.95;;;16.25;;
61644;SDS011;47553;52.428;13.382;2022-11-15T02:03:52;40.67;;;15.98;;
61644;SDS011;47553;52.428;13.382;2022-11-15T02:05:58;42.25;;;17.50;;
61644;SDS011;47553;52.428;13.382;2022-11-15T02:08:00;38.05;;;16.80;;
61644;SDS011;47553;52.428;13.382;2022-11-15T02:10:04;36.53;;;16.50;;
61644;SDS011;47553;52.428;13.382;2022-11-15T02:12:10;39.90;;;16.17;;
61644;SDS011;47553;52.428;13.382;2022-11-15T02:14:14;37.47;;;15.60;;
61644;SDS011;47553;52.428;13.382;2022-11-15T02:16:22;36.22;;;14.45;;
61644;SDS011;47553;52.428;13.382;2022-11-15T02:18:34;37.22;;;15.07;;
61644;SDS011;47553;52.428;13.382;2022-11-15T02:23:24;36.50;;;15.10;;
61644;SDS011;47553;52.428;13.382;2022-11-15T02:25:57;36.92;;;15.05;;
61644;SDS011;47553;52.428;13.382;2022-11-15T02:28:26;31.40;;;14.48;;
61644;SDS011;47553;52.428;13.382;2022-11-15T02:30:41;32.88;;;14.00;;
61644;SDS011;47553;52.428;13.382;2022-11-15T02:32:47;33.20;;;14.48;;
61644;SDS011;47553;52.428;13.382;2022-11-15T02:34:54;36.15;;;14.82;;
61644;SDS011;47553;52.428;13.382;2022-11-15T02:37:03;31.63;;;14.13;;
61644;SDS011;47553;52.428;13.382;2022-11-15T02:39:15;35.17;;;15.20;;
61644;SDS011;47553;52.428;13.382;2022-11-15T02:41:24;32.28;;;14.55;;
61644;SDS011;47553;52.428;13.382;2022-11-15T02:43:33;34.40;;;14.93;;
61644;SDS011;47553;52.428;13.382;2022-11-15T02:45:40;30.98;;;13.43;;
61644;SDS011;47553;52.428;13.382;2022-11-15T02:47:49;31.52;;;13.65;;
61644;SDS011;47553;52.428;13.382;2022-11-15T02:49:56;32.08;;;14.73;;
61644;SDS011;47553;52.428;13.382;2022-11-15T02:52:01;33.85;;;13.73;;
61644;SDS011;47553;52.428;13.382;2022-11-15T02:54:03;31.38;;;14.15;;
61644;SDS011;47553;52.428;13.382;2022-11-15T02:56:05;32.47;;;14.13;;
61644;SDS011;47553;52.428;13.382;2022-11-15T02:58:15;35.47;;;15.40;;
61644;SDS011;47553;52.428;13.382;2022-11-15T03:00:29;30.67;;;13.32;;
61644;SDS011;47553;52.428;13.382;2022-11-15T03:02:46;31.65;;;12.77;;
61644;SDS011;47553;52.428;13.382;2022-11-15T03:04:58;30.88;;;14.32;;
61644;SDS011;47553;52.428;13.382;2022-11-15T03:07:07;32.53;;;14.88;;
61644;SDS011;47553;52.428;13.382;2022-11-15T03:09:17;31.90;;;13.07;;
61644;SDS011;47553;52.428;13.382;2022-11-15T03:11:29;32.63;;;14.13;;
61644;SDS011;47553;52.428;13.382;2022-11-15T03:13:37;34.50;;;14.70;;
61644;SDS011;47553;52.428;13.382;2022-11-15T03:15:49;35.05;;;14.30;;
61644;SDS011;47553;52.428;13.382;2022-11-15T03:18:00;31.70;;;13.75;;
61644;SDS011;47553;52.428;13.382;2022-11-15T03:20:06;33.50;;;14.07;;
61644;SDS011;47553;52.428;13.382;2022-11-15T03:22:12;32.78;;;13.90;;
61644;SDS011;47553;52.428;13.382;2022-11-15T03:24:17;32.38;;;14.35;;
61644;SDS011;47553;52.428;13.382;2022-11-15T03:26:26;35.35;;;14.40;;
61644;SDS011;47553;52.428;13.382;2022-11-15T03:28:31;38.47;;;14.98;;
61644;SDS011;47553;52.428;13.382;2022-11-15T03:30:37;39.38;;;16.60;;
61644;SDS011;47553;52.428;13.382;2022-11-15T03:32:42;36.05;;;15.98;;
61644;SDS011;47553;52.428;13.382;2022-11-15T03:34:49;33.03;;;15.00;;
61644;SDS011;47553;52.428;13.382;2022-11-15T03:36:53;32.28;;;14.60;;
61644;SDS011;47553;52.428;13.382;2022-11-15T03:38:56;32.28;;;14.48;;
61644;SDS011;47553;52.428;13.382;2022-11-15T03:41:01;32.22;;;14.73;;
61644;SDS011;47553;52.428;13.382;2022-11-15T03:43:08;33.28;;;14.85;;
61644;SDS011;47553;52.428;13.382;2022-11-15T03:45:16;31.00;;;14.20;;
61644;SDS011;47553;52.428;13.382;2022-11-15T03:47:22;32.50;;;14.02;;
61644;SDS011;47553;52.428;13.382;2022-11-15T03:49:29;32.85;;;13.90;;
61644;SDS011;47553;52.428;13.382;2022-11-15T03:51:35;33.00;;;14.77;;
61644;SDS011;47553;52.428;13.382;2022-11-15T03:53:37;36.10;;;14.15;;
61644;SDS011;47553;52.428;13.382;2022-11-15T03:57:39;35.47;;;13.88;;
61644;SDS011;47553;52.428;13.382;2022-11-15T03:59:41;39.88;;;15.25;;
61644;SDS011;47553;52.428;13.382;2022-11-15T04:01:43;34.05;;;14.18;;
61644;SDS011;47553;52.428;13.382;2022-11-15T04:05:46;36.45;;;15.20;;
61644;SDS011;47553;52.428;13.382;2022-11-15T04:09:50;34.00;;;15.07;;
61644;SDS011;47553;52.428;13.382;2022-11-15T04:13:53;34.33;;;14.30;;
61644;SDS011;47553;52.428;13.382;2022-11-15T04:17:56;32.22;;;14.30;;
61644;SDS011;47553;52.428;13.382;2022-11-15T04:19:58;37.70;;;15.20;;
61644;SDS011;47553;52.428;13.382;2022-11-15T04:22:00;34.00;;;13.68;;
61644;SDS011;47553;52.428;13.382;2022-11-15T04:26:05;35.92;;;14.63;;
61644;SDS011;47553;52.428;13.382;2022-11-15T04:28:09;37.42;;;15.35;;
61644;SDS011;47553;52.428;13.382;2022-11-15T04:30:11;38.80;;;15.70;;
61644;SDS011;47553;52.428;13.382;2022-11-15T04:32:13;42.85;;;15.65;;
61644;SDS011;47553;52.428;13.382;2022-11-15T04:34:15;38.65;;;15.20;;
61644;SDS011;47553;52.428;13.382;2022-11-15T04:38:18;30.38;;;13.43;;
61644;SDS011;47553;52.428;13.382;2022-11-15T04:42:22;33.47;;;14.18;;
61644;SDS011;47553;52.428;13.382;2022-11-15T04:46:25;30.17;;;12.55;;
61644;SDS011;47553;52.428;13.382;2022-11-15T04:48:27;32.03;;;12.93;;
61644;SDS011;47553;52.428;13.382;2022-11-15T04:52:30;31.63;;;13.77;;
61644;SDS011;47553;52.428;13.382;2022-11-15T04:56:34;32.50;;;13.70;;
61644;SDS011;47553;52.428;13.382;2022-11-15T04:58:36;30.60;;;12.70;;
61644;SDS011;47553;52.428;13.382;2022-11-15T05:00:38;33.45;;;14.18;;
61644;SDS011;47553;52.428;13.382;2022-11-15T05:02:39;30.98;;;13.02;;
61644;SDS011;47553;52.428;13.382;2022-11-15T05:04:41;32.72;;;13.93;;
61644;SDS011;47553;52.428;13.382;2022-11-15T05:08:44;35.05;;;13.48;;
61644;SDS011;47553;52.428;13.382;2022-11-15T05:10:46;31.88;;;13.85;;
61644;SDS011;47553;52.428;13.382;2022-11-15T05:12:50;37.33;;;15.18;;
61644;SDS011;47553;52.428;13.382;2022-11-15T05:14:51;38.67;;;16.58;;
61644;SDS011;47553;52.428;13.382;2022-11-15T05:18:54;40.08;;;15.68;;
61644;SDS011;47553;52.428;13.382;2022-11-15T05:23:03;36.28;;;15.15;;
61644;SDS011;47553;52.428;13.382;2022-11-15T05:25:06;33.03;;;14.20;;
61644;SDS011;47553;52.428;13.382;2022-11-15T05:27:08;38.05;;;16.10;;
61644;SDS011;47553;52.428;13.382;2022-11-15T05:29:11;36.25;;;14.10;;
61644;SDS011;47553;52.428;13.382;2022-11-15T05:31:13;36.72;;;14.60;;
61644;SDS011;47553;52.428;13.382;2022-11-15T05:33:16;38.35;;;16.08;;
61644;SDS011;47553;52.428;13.382;2022-11-15T05:35:19;35.55;;;15.23;;
61644;SDS011;47553;52.428;13.382;2022-11-15T05:37:26;36.40;;;15.80;;
61644;SDS011;47553;52.428;13.382;2022-11-15T05:39:29;38.35;;;16.08;;
61644;SDS011;47553;52.428;13.382;2022-11-15T05:41:32;35.78;;;14.00;;
61644;SDS011;47553;52.428;13.382;2022-11-15T05:43:36;34.53;;;15.73;;
61644;SDS011;47553;52.428;13.382;2022-11-15T05:45:42;35.08;;;14.80;;
61644;SDS011;47553;52.428;13.382;2022-11-15T05:47:43;35.22;;;14.90;;
61644;SDS011;47553;52.428;13.382;2022-11-15T05:49:46;32.20;;;14.18;;
61644;SDS011;47553;52.428;13.382;2022-11-15T05:51:51;34.55;;;14.82;;
61644;SDS011;47553;52.428;13.382;2022-11-15T05:53:55;35.08;;;13.82;;
61644;SDS011;47553;52.428;13.382;2022-11-15T05:55:57;35.03;;;14.48;;
61644;SDS011;47553;52.428;13.382;2022-11-15T05:57:59;32.50;;;13.55;;
61644;SDS011;47553;52.428;13.382;2022-11-15T06:00:02;31.33;;;13.77;;
61644;SDS011;47553;52.428;13.382;2022-11-15T06:02:06;30.63;;;13.82;;
61644;SDS011;47553;52.428;13.382;2022-11-15T06:04:07;32.20;;;15.05;;
61644;SDS011;47553;52.428;13.382;2022-11-15T06:06:09;31.92;;;13.95;;
61644;SDS011;47553;52.428;13.382;2022-11-15T06:08:16;36.95;;;16.25;;
61644;SDS011;47553;52.428;13.382;2022-11-15T06:12:19;33.58;;;14.95;;
61644;SDS011;47553;52.428;13.382;2022-11-15T06:14:21;33.95;;;14.13;;
61644;SDS011;47553;52.428;13.382;2022-11-15T06:16:22;30.88;;;14.00;;
61644;SDS011;47553;52.428;13.382;2022-11-15T06:20:27;32.53;;;14.43;;
61644;SDS011;47553;52.428;13.382;2022-11-15T06:22:30;33.10;;;14.07;;
61644;SDS011;47553;52.428;13.382;2022-11-15T06:26:33;30.20;;;13.57;;
61644;SDS011;47553;52.428;13.382;2022-11-15T06:30:36;29.70;;;12.35;;
61644;SDS011;47553;52.428;13.382;2022-11-15T06:32:40;30.70;;;13.27;;
61644;SDS011;47553;52.428;13.382;2022-11-15T06:36:45;31.10;;;12.73;;
61644;SDS011;47553;52.428;13.382;2022-11-15T06:40:48;30.17;;;12.82;;
61644;SDS011;47553;52.428;13.382;2022-11-15T06:44:51;34.80;;;13.13;;
61644;SDS011;47553;52.428;13.382;2022-11-15T06:48:53;28.95;;;13.27;;
61644;SDS011;47553;52.428;13.382;2022-11-15T06:50:57;30.52;;;13.98;;
61644;SDS011;47553;52.428;13.382;2022-11-15T06:53:01;30.20;;;12.95;;
61644;SDS011;47553;52.428;13.382;2022-11-15T06:55:03;34.10;;;13.98;;
61644;SDS011;47553;52.428;13.382;2022-11-15T06:57:05;37.80;;;15.10;;
61644;SDS011;47553;52.428;13.382;2022-11-15T07:01:09;34.22;;;13.18;;
61644;SDS011;47553;52.428;13.382;2022-11-15T07:03:12;32.65;;;14.32;;
61644;SDS011;47553;52.428;13.382;2022-11-15T07:07:17;32.78;;;13.60;;
61644;SDS011;47553;52.428;13.382;2022-11-15T07:09:18;31.83;;;13.85;;
61644;SDS011;47553;52.428;13.382;2022-11-15T07:11:20;35.80;;;15.73;;
61644;SDS011;47553;52.428;13.382;2022-11-15T07:15:25;36.00;;;14.73;;
61644;SDS011;47553;52.428;13.382;2022-11-15T07:17:27;37.30;;;15.32;;
61644;SDS011;47553;52.428;13.382;2022-11-15T07:21:30;30.88;;;12.95;;
61644;SDS011;47553;52.428;13.382;2022-11-15T07:25:36;30.98;;;13.88;;
61644;SDS011;47553;52.428;13.382;2022-11-15T07:29:40;33.88;;;14.98;;
61644;SDS011;47553;52.428;13.382;2022-11-15T07:31:41;36.10;;;14.32;;
61644;SDS011;47553;52.428;13.382;2022-11-15T07:33:45;34.88;;;15.63;;
61644;SDS011;47553;52.428;13.382;2022-11-15T07:37:54;29.00;;;12.98;;
61644;SDS011;47553;52.428;13.382;2022-11-15T07:39:58;32.08;;;13.57;;
61644;SDS011;47553;52.428;13.382;2022-11-15T07:41:59;34.33;;;13.73;;
61644;SDS011;47553;52.428;13.382;2022-11-15T07:44:01;29.67;;;13.13;;
61644;SDS011;47553;52.428;13.382;2022-11-15T07:48:05;30.42;;;12.35;;
61644;SDS011;47553;52.428;13.382;2022-11-15T07:52:08;32.88;;;13.95;;
61644;SDS011;47553;52.428;13.382;2022-11-15T07:56:13;33.42;;;12.50;;
61644;SDS011;47553;52.428;13.382;2022-11-15T07:58:14;31.65;;;13.75;;
61644;SDS011;47553;52.428;13.382;2022-11-15T08:02:18;39.08;;;14.50;;
61644;SDS011;47553;52.428;13.382;2022-11-15T08:04:20;32.50;;;14.93;;
61644;SDS011;47553;52.428;13.382;2022-11-15T08:06:21;35.88;;;14.85;;
61644;SDS011;47553;52.428;13.382;2022-11-15T08:10:24;32.08;;;13.85;;
61644;SDS011;47553;52.428;13.382;2022-11-15T08:12:28;36.05;;;15.43;;
61644;SDS011;47553;52.428;13.382;2022-11-15T08:14:32;32.58;;;14.25;;
61644;SDS011;47553;52.428;13.382;2022-11-15T08:16:34;32.92;;;13.95;;
61644;SDS011;47553;52.428;13.382;2022-11-15T08:20:37;36.33;;;14.25;;
61644;SDS011;47553;52.428;13.382;2022-11-15T08:22:38;49.30;;;14.57;;
61644;SDS011;47553;52.428;13.382;2022-11-15T08:26:41;39.13;;;15.48;;
61644;SDS011;47553;52.428;13.382;2022-11-15T08:30:46;34.20;;;14.52;;
61644;SDS011;47553;52.428;13.382;2022-11-15T08:32:47;35.85;;;15.63;;
61644;SDS011;47553;52.428;13.382;2022-11-15T08:34:50;31.33;;;14.45;;
61644;SDS011;47553;52.428;13.382;2022-11-15T08:38:52;34.65;;;14.40;;
61644;SDS011;47553;52.428;13.382;2022-11-15T08:43:01;32.10;;;13.90;;
61644;SDS011;47553;52.428;13.382;2022-11-15T08:45:04;31.58;;;13.40;;
61644;SDS011;47553;52.428;13.382;2022-11-15T08:47:06;31.73;;;13.70;;
61644;SDS011;47553;52.428;13.382;2022-11-15T08:49:08;37.55;;;14.57;;
61644;SDS011;47553;52.428;13.382;2022-11-15T08:51:09;32.30;;;14.60;;
61644;SDS011;47553;52.428;13.382;2022-11-15T08:53:12;36.65;;;15.05;;
61644;SDS011;47553;52.428;13.382;2022-11-15T08:55:14;32.60;;;12.40;;
61644;SDS011;47553;52.428;13.382;2022-11-15T08:57:18;35.65;;;15.55;;
61644;SDS011;47553;52.428;13.382;2022-11-15T08:59:19;33.58;;;13.68;;
61644;SDS011;47553;52.428;13.382;2022-11-15T09:01:22;32.40;;;14.25;;
61644;SDS011;47553;52.428;13.382;2022-11-15T09:03:24;30.15;;;13.80;;
61644;SDS011;47553;52.428;13.382;2022-11-15T09:05:26;35.45;;;14.43;;
61644;SDS011;47553;52.428;13.382;2022-11-15T09:07:27;30.88;;;12.85;;
61644;SDS011;47553;52.428;13.382;2022-11-15T09:09:29;28.05;;;12.10;;
61644;SDS011;47553;52.428;13.382;2022-11-15T09:11:31;30.90;;;13.60;;
61644;SDS011;47553;52.428;13.382;2022-11-15T09:13:32;31.90;;;12.82;;
61644;SDS011;47553;52.428;13.382;2022-11-15T09:15:34;32.60;;;13.82;;
61644;SDS011;47553;52.428;13.382;2022-11-15T09:17:37;30.10;;;13.05;;
61644;SDS011;47553;52.428;13.382;2022-11-15T09:19:38;27.70;;;12.35;;
61644;SDS011;47553;52.428;13.382;2022-11-15T09:21:40;30.00;;;12.80;;
61644;SDS011;47553;52.428;13.382;2022-11-15T09:23:42;26.05;;;12.27;;
61644;SDS011;47553;52.428;13.382;2022-11-15T09:25:43;27.75;;;13.45;;
61644;SDS011;47553;52.428;13.382;2022-11-15T09:27:45;26.98;;;12.35;;
61644;SDS011;47553;52.428;13.382;2022-11-15T09:29:46;27.38;;;11.80;;
61644;SDS011;47553;52.428;13.382;2022-11-15T09:31:48;25.00;;;11.52;;
61644;SDS011;47553;52.428;13.382;2022-11-15T09:33:51;29.98;;;12.07;;
61644;SDS011;47553;52.428;13.382;2022-11-15T09:35:53;28.10;;;11.20;;
61644;SDS011;47553;52.428;13.382;2022-11-15T09:37:54;27.10;;;11.77;;
61644;SDS011;47553;52.428;13.382;2022-11-15T09:39:58;27.02;;;12.30;;
61644;SDS011;47553;52.428;13.382;2022-11-15T09:42:04;27.25;;;12.15;;
61644;SDS011;47553;52.428;13.382;2022-11-15T09:44:29;25.92;;;11.18;;
61644;SDS011;47553;52.428;13.382;2022-11-15T09:46:45;25.65;;;10.65;;
61644;SDS011;47553;52.428;13.382;2022-11-15T09:48:54;23.65;;;10.30;;
61644;SDS011;47553;52.428;13.382;2022-11-15T09:50:57;22.83;;;10.88;;
61644;SDS011;47553;52.428;13.382;2022-11-15T09:52:59;23.50;;;10.70;;
61644;SDS011;47553;52.428;13.382;2022-11-15T09:55:01;20.98;;;10.15;;
61644;SDS011;47553;52.428;13.382;2022-11-15T09:57:03;23.15;;;9.95;;
61644;SDS011;47553;52.428;13.382;2022-11-15T09:59:24;23.77;;;10.52;;
61644;SDS011;47553;52.428;13.382;2022-11-15T10:01:36;22.98;;;9.55;;
61644;SDS011;47553;52.428;13.382;2022-11-15T10:03:45;19.77;;;8.93;;
61644;SDS011;47553;52.428;13.382;2022-11-15T10:05:48;23.40;;;10.43;;
61644;SDS011;47553;52.428;13.382;2022-11-15T10:07:54;20.13;;;9.43;;
61644;SDS011;47553;52.428;13.382;2022-11-15T10:10:04;21.50;;;9.23;;
61644;SDS011;47553;52.428;13.382;2022-11-15T10:12:15;20.92;;;9.60;;
61644;SDS011;47553;52.428;13.382;2022-11-15T10:14:18;22.45;;;10.25;;
61644;SDS011;47553;52.428;13.382;2022-11-15T10:19:03;20.85;;;9.10;;
61644;SDS011;47553;52.428;13.382;2022-11-15T10:21:12;21.05;;;9.40;;
61644;SDS011;47553;52.428;13.382;2022-11-15T10:23:18;21.55;;;9.23;;
61644;SDS011;47553;52.428;13.382;2022-11-15T10:25:23;19.55;;;9.27;;
61644;SDS011;47553;52.428;13.382;2022-11-15T10:27:26;20.73;;;9.13;;
61644;SDS011;47553;52.428;13.382;2022-11-15T10:29:27;22.60;;;9.02;;
61644;SDS011;47553;52.428;13.382;2022-11-15T10:31:29;20.00;;;9.15;;
61644;SDS011;47553;52.428;13.382;2022-11-15T10:33:31;20.45;;;8.77;;
61644;SDS011;47553;52.428;13.382;2022-11-15T10:35:33;21.63;;;8.95;;
61644;SDS011;47553;52.428;13.382;2022-11-15T10:37:36;20.75;;;9.00;;
61644;SDS011;47553;52.428;13.382;2022-11-15T10:39:38;17.98;;;8.35;;
61644;SDS011;47553;52.428;13.382;2022-11-15T10:41:40;20.88;;;9.70;;
61644;SDS011;47553;52.428;13.382;2022-11-15T10:43:43;19.98;;;8.85;;
61644;SDS011;47553;52.428;13.382;2022-11-15T10:45:46;18.23;;;9.15;;
61644;SDS011;47553;52.428;13.382;2022-11-15T10:47:47;20.08;;;8.32;;
61644;SDS011;47553;52.428;13.382;2022-11-15T10:49:53;16.95;;;8.18;;
61644;SDS011;47553;52.428;13.382;2022-11-15T10:54:01;17.13;;;7.53;;
61644;SDS011;47553;52.428;13.382;2022-11-15T10:56:08;17.00;;;8.00;;
61644;SDS011;47553;52.428;13.382;2022-11-15T10:58:19;17.95;;;8.55;;
61644;SDS011;47553;52.428;13.382;2022-11-15T11:00:27;17.17;;;8.23;;
61644;SDS011;47553;52.428;13.382;2022-11-15T11:02:33;16.67;;;8.20;;
61644;SDS011;47553;52.428;13.382;2022-11-15T11:04:48;17.00;;;8.95;;
61644;SDS011;47553;52.428;13.382;2022-11-15T11:06:51;17.50;;;8.10;;
61644;SDS011;47553;52.428;13.382;2022-11-15T11:08:55;18.40;;;8.25;;
61644;SDS011;47553;52.428;13.382;2022-11-15T11:11:00;18.58;;;8.40;;
61644;SDS011;47553;52.428;13.382;2022-11-15T11:13:14;16.52;;;7.57;;
61644;SDS011;47553;52.428;13.382;2022-11-15T11:15:22;15.82;;;7.75;;
61644;SDS011;47553;52.428;13.382;2022-11-15T11:17:31;19.35;;;8.07;;
61644;SDS011;47553;52.428;13.382;2022-11-15T11:19:46;18.80;;;8.45;;
61644;SDS011;47553;52.428;13.382;2022-11-15T11:21:57;16.90;;;7.63;;
61644;SDS011;47553;52.428;13.382;2022-11-15T11:24:08;15.95;;;7.45;;
61644;SDS011;47553;52.428;13.382;2022-11-15T11:26:24;16.00;;;7.63;;
61644;SDS011;47553;52.428;13.382;2022-11-15T11:28:39;18.20;;;7.88;;
61644;SDS011;47553;52.428;13.382;2022-11-15T11:30:47;17.00;;;7.93;;
61644;SDS011;47553;52.428;13.382;2022-11-15T11:33:02;17.35;;;7.72;;
61644;SDS011;47553;52.428;13.382;2022-11-15T11:35:14;19.95;;;8.18;;
61644;SDS011;47553;52.428;13.382;2022-11-15T11:37:24;18.27;;;7.90;;
61644;SDS011;47553;52.428;13.382;2022-11-15T11:39:34;19.58;;;8.75;;
61644;SDS011;47553;52.428;13.382;2022-11-15T11:41:50;21.52;;;8.70;;
61644;SDS011;47553;52.428;13.382;2022-11-15T11:44:01;19.20;;;8.13;;
61644;SDS011;47553;52.428;13.382;2022-11-15T11:46:15;17.67;;;8.13;;
61644;SDS011;47553;52.428;13.382;2022-11-15T11:48:32;18.23;;;8.10;;
61644;SDS011;47553;52.428;13.382;2022-11-15T11:50:42;16.65;;;7.50;;
61644;SDS011;47553;52.428;13.382;2022-11-15T11:52:50;18.50;;;8.23;;
61644;SDS011;47553;52.428;13.382;2022-11-15T11:55:05;15.23;;;7.30;;
61644;SDS011;47553;52.428;13.382;2022-11-15T11:57:21;16.15;;;7.32;;
61644;SDS011;47553;52.428;13.382;2022-11-15T11:59:28;17.75;;;7.25;;
61644;SDS011;47553;52.428;13.382;2022-11-15T12:01:40;15.77;;;7.28;;
61644;SDS011;47553;52.428;13.382;2022-11-15T12:03:45;15.48;;;7.47;;
61644;SDS011;47553;52.428;13.382;2022-11-15T12:05:50;16.45;;;7.38;;
61644;SDS011;47553;52.428;13.382;2022-11-15T12:07:58;14.60;;;7.43;;
61644;SDS011;47553;52.428;13.382;2022-11-15T12:10:08;16.05;;;7.30;;
61644;SDS011;47553;52.428;13.382;2022-11-15T12:12:21;16.90;;;7.80;;
61644;SDS011;47553;52.428;13.382;2022-11-15T12:14:31;17.02;;;7.25;;
61644;SDS011;47553;52.428;13.382;2022-11-15T12:16:35;15.63;;;7.57;;
61644;SDS011;47553;52.428;13.382;2022-11-15T12:18:41;17.67;;;7.40;;
61644;SDS011;47553;52.428;13.382;2022-11-15T12:20:49;16.63;;;7.05;;
61644;SDS011;47553;52.428;13.382;2022-11-15T12:22:57;14.63;;;7.65;;
61644;SDS011;47553;52.428;13.382;2022-11-15T12:25:05;17.23;;;8.10;;
61644;SDS011;47553;52.428;13.382;2022-11-15T12:27:16;19.08;;;7.60;;
61644;SDS011;47553;52.428;13.382;2022-11-15T12:29:29;16.05;;;7.50;;
61644;SDS011;47553;52.428;13.382;2022-11-15T12:31:36;16.20;;;8.10;;
61644;SDS011;47553;52.428;13.382;2022-11-15T12:33:41;16.55;;;7.97;;
61644;SDS011;47553;52.428;13.382;2022-11-15T12:35:44;16.55;;;6.93;;
61644;SDS011;47553;52.428;13.382;2022-11-15T12:38:00;13.15;;;6.40;;
61644;SDS011;47553;52.428;13.382;2022-11-15T12:40:16;14.80;;;6.82;;
61644;SDS011;47553;52.428;13.382;2022-11-15T12:42:39;15.15;;;7.10;;
61644;SDS011;47553;52.428;13.382;2022-11-15T12:44:59;14.73;;;7.10;;
61644;SDS011;47553;52.428;13.382;2022-11-15T12:47:02;15.98;;;6.97;;
61644;SDS011;47553;52.428;13.382;2022-11-15T12:49:08;14.98;;;6.80;;
61644;SDS011;47553;52.428;13.382;2022-11-15T12:51:11;13.88;;;6.57;;
61644;SDS011;47553;52.428;13.382;2022-11-15T12:55:36;13.02;;;6.00;;
61644;SDS011;47553;52.428;13.382;2022-11-15T12:57:38;12.82;;;6.55;;
61644;SDS011;47553;52.428;13.382;2022-11-15T12:59:48;12.70;;;6.55;;
61644;SDS011;47553;52.428;13.382;2022-11-15T13:01:57;13.95;;;6.40;;
61644;SDS011;47553;52.428;13.382;2022-11-15T13:04:21;14.75;;;6.88;;
61644;SDS011;47553;52.428;13.382;2022-11-15T13:06:36;15.88;;;7.22;;
61644;SDS011;47553;52.428;13.382;2022-11-15T13:08:41;14.55;;;6.75;;
61644;SDS011;47553;52.428;13.382;2022-11-15T13:10:45;18.48;;;7.50;;
61644;SDS011;47553;52.428;13.382;2022-11-15T13:12:55;14.98;;;6.80;;
61644;SDS011;47553;52.428;13.382;2022-11-15T13:14:58;14.75;;;7.00;;
61644;SDS011;47553;52.428;13.382;2022-11-15T13:17:02;14.73;;;6.65;;
61644;SDS011;47553;52.428;13.382;2022-11-15T13:19:11;14.05;;;6.57;;
61644;SDS011;47553;52.428;13.382;2022-11-15T13:21:20;14.23;;;6.93;;
61644;SDS011;47553;52.428;13.382;2022-11-15T13:23:28;15.13;;;6.47;;
61644;SDS011;47553;52.428;13.382;2022-11-15T13:28:10;15.25;;;6.90;;
61644;SDS011;47553;52.428;13.382;2022-11-15T13:30:24;15.27;;;6.57;;
61644;SDS011;47553;52.428;13.382;2022-11-15T13:32:28;18.65;;;7.70;;
61644;SDS011;47553;52.428;13.382;2022-11-15T13:34:31;18.40;;;6.93;;
61644;SDS011;47553;52.428;13.382;2022-11-15T13:36:52;17.05;;;7.55;;
61644;SDS011;47553;52.428;13.382;2022-11-15T13:38:54;16.48;;;7.78;;
61644;SDS011;47553;52.428;13.382;2022-11-15T13:40:58;16.58;;;7.28;;
61644;SDS011;47553;52.428;13.382;2022-11-15T13:43:12;16.67;;;7.68;;
61644;SDS011;47553;52.428;13.382;2022-11-15T13:45:26;19.60;;;9.02;;
61644;SDS011;47553;52.428;13.382;2022-11-15T13:47:30;19.45;;;8.65;;
61644;SDS011;47553;52.428;13.382;2022-11-15T13:49:32;15.70;;;7.82;;
61644;SDS011;47553;52.428;13.382;2022-11-15T13:51:37;18.23;;;8.07;;
61644;SDS011;47553;52.428;13.382;2022-11-15T13:53:44;19.58;;;8.30;;
61644;SDS011;47553;52.428;13.382;2022-11-15T13:55:48;19.67;;;8.18;;
61644;SDS011;47553;52.428;13.382;2022-11-15T13:57:50;15.30;;;7.88;;
61644;SDS011;47553;52.428;13.382;2022-11-15T13:59:55;16.38;;;8.05;;
61644;SDS011;47553;52.428;13.382;2022-11-15T14:02:03;18.90;;;8.43;;
61644;SDS011;47553;52.428;13.382;2022-11-15T14:04:17;17.75;;;7.40;;
61644;SDS011;47553;52.428;13.382;2022-11-15T14:06:21;16.25;;;7.47;;